createdAt,value
2023-02-24T00:00:38.032Z,0.00
2023-02-24T00:01:28.781Z,0.00
2023-02-24T00:02:19.595Z,0.00
2023-02-24T00:03:10.338Z,0.00
2023-02-24T00:04:01.124Z,0.00
2023-02-24T00:04:52.113Z,0.00
2023-02-24T00:05:42.835Z,0.00
2023-02-24T00:06:33.598Z,0.00
2023-02-24T00:07:24.372Z,0.00
2023-02-24T00:08:15.136Z,0.00
2023-02-24T00:09:05.905Z,0.00
2023-02-24T00:09:56.670Z,0.00
2023-02-24T00:10:47.445Z,0.00
2023-02-24T00:11:38.211Z,0.00
2023-02-24T00:12:29.000Z,0.00
2023-02-24T00:13:19.738Z,0.00
2023-02-24T00:14:10.635Z,0.00
2023-02-24T00:15:01.418Z,0.00
2023-02-24T00:15:52.193Z,0.00
2023-02-24T00:16:43.059Z,0.00
2023-02-24T00:17:33.859Z,0.00
2023-02-24T00:18:24.633Z,0.00
2023-02-24T00:19:15.394Z,0.00
2023-02-24T00:20:06.164Z,0.00
2023-02-24T00:20:56.926Z,0.00
2023-02-24T00:21:47.696Z,0.00
2023-02-24T00:22:38.471Z,0.00
2023-02-24T00:23:29.226Z,0.00
2023-02-24T00:24:19.996Z,0.00
2023-02-24T00:25:10.765Z,0.00
2023-02-24T00:26:01.540Z,0.00
2023-02-24T00:26:52.294Z,0.00
2023-02-24T00:27:43.088Z,0.00
2023-02-24T00:28:33.828Z,0.00
2023-02-24T00:29:24.599Z,0.00
2023-02-24T00:30:15.378Z,0.00
2023-02-24T00:31:06.214Z,0.00
2023-02-24T00:31:57.080Z,0.00
2023-02-24T00:32:47.995Z,0.00
2023-02-24T00:33:38.780Z,0.00
2023-02-24T00:34:29.571Z,0.00
2023-02-24T00:35:20.331Z,0.00
2023-02-24T00:36:11.097Z,0.00
2023-02-24T00:37:01.856Z,0.00
2023-02-24T00:37:52.633Z,0.00
2023-02-24T00:38:43.389Z,0.00
2023-02-24T00:39:34.156Z,0.00
2023-02-24T00:40:24.925Z,0.00
2023-02-24T00:41:15.722Z,0.00
2023-02-24T00:42:06.509Z,0.00
2023-02-24T00:42:57.264Z,0.00
2023-02-24T00:43:48.001Z,0.00
2023-02-24T00:44:38.797Z,0.00
2023-02-24T00:45:29.571Z,0.00
2023-02-24T00:46:20.431Z,0.00
2023-02-24T00:47:11.134Z,0.00
2023-02-24T00:48:01.904Z,0.00
2023-02-24T00:48:52.668Z,0.00
2023-02-24T00:49:43.548Z,0.00
2023-02-24T00:50:34.240Z,0.00
2023-02-24T00:51:25.009Z,0.00
2023-02-24T00:52:15.791Z,0.00
2023-02-24T00:53:06.556Z,0.00
2023-02-24T00:53:57.321Z,0.00
2023-02-24T00:54:48.084Z,0.00
2023-02-24T00:55:38.860Z,0.00
2023-02-24T00:56:29.632Z,0.00
2023-02-24T00:57:20.393Z,0.00
2023-02-24T00:58:11.219Z,0.00
2023-02-24T00:59:01.958Z,0.00
2023-02-24T00:59:52.779Z,0.00
2023-02-24T01:00:43.519Z,0.00
2023-02-24T01:01:34.298Z,0.00
2023-02-24T01:02:25.070Z,0.00
2023-02-24T01:03:15.816Z,0.00
2023-02-24T01:04:06.603Z,0.00
2023-02-24T01:04:57.352Z,0.00
2023-02-24T01:05:48.123Z,0.00
2023-02-24T01:06:38.885Z,0.00
2023-02-24T01:07:29.647Z,0.00
2023-02-24T01:08:20.411Z,0.00
2023-02-24T01:09:11.184Z,0.00
2023-02-24T01:10:01.946Z,0.00
2023-02-24T01:10:52.713Z,0.00
2023-02-24T01:11:43.510Z,0.00
2023-02-24T01:12:34.247Z,0.00
2023-02-24T01:13:25.030Z,0.00
2023-02-24T01:14:15.786Z,0.00
2023-02-24T01:15:06.553Z,0.00
2023-02-24T01:15:57.353Z,0.00
2023-02-24T01:16:48.095Z,0.00
2023-02-24T01:17:38.861Z,0.00
2023-02-24T01:18:29.648Z,0.00
2023-02-24T01:19:20.411Z,0.00
2023-02-24T01:20:11.177Z,0.00
2023-02-24T01:21:01.945Z,0.00
2023-02-24T01:21:52.707Z,0.00
2023-02-24T01:22:43.470Z,0.00
2023-02-24T01:23:34.247Z,0.00
2023-02-24T01:24:25.012Z,0.00
2023-02-24T01:25:15.780Z,0.00
2023-02-24T01:26:06.540Z,0.00
2023-02-24T01:26:57.333Z,0.00
2023-02-24T01:27:48.084Z,0.00
2023-02-24T01:28:38.851Z,0.00
2023-02-24T01:29:29.594Z,0.00
2023-02-24T01:30:20.377Z,0.00
2023-02-24T01:31:11.212Z,0.00
2023-02-24T01:32:02.210Z,0.00
2023-02-24T01:32:53.241Z,0.00
2023-02-24T01:33:44.102Z,0.00
2023-02-24T01:34:34.865Z,0.00
2023-02-24T01:35:25.646Z,0.00
2023-02-24T01:36:16.411Z,0.00
2023-02-24T01:37:07.182Z,0.00
2023-02-24T01:37:57.940Z,0.00
2023-02-24T01:38:48.711Z,0.00
2023-02-24T01:39:39.485Z,0.00
2023-02-24T01:40:30.286Z,0.00
2023-02-24T01:41:21.303Z,0.00
2023-02-24T01:42:12.149Z,0.00
2023-02-24T01:43:02.923Z,0.00
2023-02-24T01:43:53.710Z,0.00
2023-02-24T01:44:44.454Z,0.00
2023-02-24T01:45:35.233Z,0.00
2023-02-24T01:46:26.041Z,0.00
2023-02-24T01:47:16.772Z,0.00
2023-02-24T01:48:07.527Z,0.00
2023-02-24T01:48:58.315Z,0.00
2023-02-24T01:49:49.081Z,0.00
2023-02-24T01:50:39.874Z,0.00
2023-02-24T01:51:30.623Z,0.00
2023-02-24T01:52:21.396Z,0.00
2023-02-24T01:53:12.175Z,0.00
2023-02-24T01:54:02.929Z,0.00
2023-02-24T01:54:53.692Z,0.00
2023-02-24T01:55:44.462Z,0.00
2023-02-24T01:56:35.246Z,0.00
2023-02-24T01:57:26.012Z,0.00
2023-02-24T01:58:16.766Z,0.00
2023-02-24T01:59:07.562Z,0.00
2023-02-24T01:59:58.329Z,0.00
2023-02-24T02:00:49.080Z,0.00
2023-02-24T02:01:39.987Z,0.00
2023-02-24T02:02:30.834Z,0.00
2023-02-24T02:03:21.567Z,0.00
2023-02-24T02:04:12.332Z,0.00
2023-02-24T02:05:03.102Z,0.00
2023-02-24T02:05:53.875Z,0.00
2023-02-24T02:06:44.639Z,0.00
2023-02-24T02:07:35.405Z,0.00
2023-02-24T02:08:26.161Z,0.00
2023-02-24T02:09:16.938Z,0.00
2023-02-24T02:10:07.701Z,0.00
2023-02-24T02:10:58.480Z,0.00
2023-02-24T02:11:49.273Z,0.00
2023-02-24T02:12:40.010Z,0.00
2023-02-24T02:13:30.792Z,0.00
2023-02-24T02:14:21.558Z,0.00
2023-02-24T02:15:12.313Z,0.00
2023-02-24T02:16:03.183Z,0.00
2023-02-24T02:16:53.892Z,0.00
2023-02-24T02:17:44.658Z,0.00
2023-02-24T02:18:35.431Z,0.00
2023-02-24T02:19:26.189Z,0.00
2023-02-24T02:20:16.956Z,0.00
2023-02-24T02:21:07.726Z,0.00
2023-02-24T02:21:58.514Z,0.00
2023-02-24T02:22:49.257Z,0.00
2023-02-24T02:23:40.034Z,0.00
2023-02-24T02:24:30.789Z,0.00
2023-02-24T02:25:21.794Z,0.00
2023-02-24T02:26:12.566Z,0.00
2023-02-24T02:27:03.325Z,0.00
2023-02-24T02:27:54.098Z,0.00
2023-02-24T02:28:44.870Z,0.00
2023-02-24T02:29:35.672Z,0.00
2023-02-24T02:30:26.409Z,0.00
2023-02-24T02:31:17.272Z,0.00
2023-02-24T02:32:08.154Z,0.00
2023-02-24T02:32:58.964Z,0.00
2023-02-24T02:33:49.677Z,0.00
2023-02-24T02:34:40.458Z,0.00
2023-02-24T02:35:31.213Z,0.00
2023-02-24T02:36:22.001Z,0.00
2023-02-24T02:37:12.796Z,0.00
2023-02-24T02:38:03.555Z,0.00
2023-02-24T02:38:54.319Z,0.00
2023-02-24T02:39:45.087Z,0.00
2023-02-24T02:40:35.865Z,0.00
2023-02-24T02:41:26.632Z,0.00
2023-02-24T02:42:17.390Z,0.00
2023-02-24T02:43:08.175Z,0.00
2023-02-24T02:43:58.942Z,0.00
2023-02-24T02:44:49.722Z,0.00
2023-02-24T02:45:40.559Z,0.00
2023-02-24T02:46:31.315Z,0.00
2023-02-24T02:47:22.072Z,0.00
2023-02-24T02:48:12.852Z,0.00
2023-02-24T02:49:03.610Z,0.00
2023-02-24T02:49:54.405Z,0.00
2023-02-24T02:50:45.161Z,0.00
2023-02-24T02:51:35.930Z,0.00
2023-02-24T02:52:26.680Z,0.00
2023-02-24T02:53:17.448Z,0.00
2023-02-24T02:54:08.198Z,0.00
2023-02-24T02:54:58.984Z,0.00
2023-02-24T02:55:49.734Z,0.00
2023-02-24T02:56:40.513Z,0.00
2023-02-24T02:57:31.263Z,0.00
2023-02-24T02:58:22.048Z,0.00
2023-02-24T02:59:12.868Z,0.00
2023-02-24T03:00:03.603Z,0.00
2023-02-24T03:00:54.440Z,0.00
2023-02-24T03:01:45.135Z,0.00
2023-02-24T03:02:35.896Z,0.00
2023-02-24T03:03:26.674Z,0.00
2023-02-24T03:04:17.476Z,0.00
2023-02-24T03:05:08.210Z,0.00
2023-02-24T03:05:58.965Z,0.00
2023-02-24T03:06:49.730Z,0.00
2023-02-24T03:07:40.497Z,0.00
2023-02-24T03:08:31.272Z,0.00
2023-02-24T03:09:22.017Z,0.00
2023-02-24T03:10:12.803Z,0.00
2023-02-24T03:11:03.564Z,0.00
2023-02-24T03:11:54.336Z,0.00
2023-02-24T03:12:45.108Z,0.00
2023-02-24T03:13:35.865Z,0.00
2023-02-24T03:14:26.644Z,0.00
2023-02-24T03:15:17.427Z,0.00
2023-02-24T03:16:08.185Z,0.00
2023-02-24T03:16:58.927Z,0.00
2023-02-24T03:17:49.685Z,0.00
2023-02-24T03:18:40.467Z,0.00
2023-02-24T03:19:31.218Z,0.00
2023-02-24T03:20:21.982Z,0.00
2023-02-24T03:21:12.749Z,0.00
2023-02-24T03:22:03.521Z,0.00
2023-02-24T03:22:54.277Z,0.00
2023-02-24T03:23:45.055Z,0.00
2023-02-24T03:24:35.811Z,0.00
2023-02-24T03:25:26.594Z,0.00
2023-02-24T03:26:17.397Z,0.00
2023-02-24T03:27:08.117Z,0.00
2023-02-24T03:27:58.885Z,0.00
2023-02-24T03:28:49.647Z,0.00
2023-02-24T03:29:40.414Z,0.00
2023-02-24T03:30:31.203Z,0.00
2023-02-24T03:31:22.405Z,0.00
2023-02-24T03:32:12.845Z,0.00
2023-02-24T03:33:03.597Z,0.00
2023-02-24T03:33:54.357Z,0.00
2023-02-24T03:34:45.123Z,0.00
2023-02-24T03:35:35.900Z,0.00
2023-02-24T03:36:26.666Z,0.00
2023-02-24T03:37:17.430Z,0.00
2023-02-24T03:38:08.194Z,0.00
2023-02-24T03:38:58.973Z,0.00
2023-02-24T03:39:49.740Z,0.00
2023-02-24T03:40:40.512Z,0.00
2023-02-24T03:41:31.267Z,0.00
2023-02-24T03:42:22.037Z,0.00
2023-02-24T03:43:14.428Z,0.00
2023-02-24T03:44:04.084Z,0.00
2023-02-24T03:44:54.838Z,0.00
2023-02-24T03:45:45.654Z,0.00
2023-02-24T03:46:36.383Z,0.00
2023-02-24T03:47:27.158Z,0.00
2023-02-24T03:48:17.913Z,0.00
2023-02-24T03:49:08.696Z,0.00
2023-02-24T03:49:59.457Z,0.00
2023-02-24T03:50:50.231Z,0.00
2023-02-24T03:51:40.999Z,0.00
2023-02-24T03:52:31.761Z,0.00
2023-02-24T03:53:22.516Z,0.00
2023-02-24T03:54:13.295Z,0.00
2023-02-24T03:55:04.064Z,0.00
2023-02-24T03:55:54.816Z,0.00
2023-02-24T03:56:45.586Z,0.00
2023-02-24T03:57:36.349Z,0.00
2023-02-24T03:58:27.115Z,0.00
2023-02-24T03:59:17.881Z,0.00
2023-02-24T04:00:08.640Z,0.00
2023-02-24T04:00:59.431Z,0.00
2023-02-24T04:01:50.194Z,0.00
2023-02-24T04:02:40.990Z,0.00
2023-02-24T04:03:31.693Z,0.00
2023-02-24T04:04:22.561Z,0.00
2023-02-24T04:05:13.261Z,0.00
2023-02-24T04:06:04.043Z,0.00
2023-02-24T04:06:56.358Z,0.00
2023-02-24T04:07:45.844Z,0.00
2023-02-24T04:08:36.594Z,0.00
2023-02-24T04:09:27.383Z,0.00
2023-02-24T04:10:18.149Z,0.00
2023-02-24T04:11:08.922Z,0.00
2023-02-24T04:11:59.688Z,0.00
2023-02-24T04:12:50.507Z,0.00
2023-02-24T04:13:41.267Z,0.00
2023-02-24T04:14:32.052Z,0.00
2023-02-24T04:15:22.814Z,0.00
2023-02-24T04:16:13.668Z,0.00
2023-02-24T04:17:04.357Z,0.00
2023-02-24T04:17:55.124Z,0.00
2023-02-24T04:18:45.904Z,0.00
2023-02-24T04:19:36.688Z,0.00
2023-02-24T04:20:27.443Z,0.00
2023-02-24T04:21:18.625Z,0.00
2023-02-24T04:22:09.225Z,0.00
2023-02-24T04:23:00.002Z,0.00
2023-02-24T04:23:50.763Z,0.00
2023-02-24T04:24:41.536Z,0.00
2023-02-24T04:25:32.323Z,0.00
2023-02-24T04:26:23.104Z,0.00
2023-02-24T04:27:13.841Z,0.00
2023-02-24T04:28:04.623Z,0.00
2023-02-24T04:28:55.375Z,0.00
2023-02-24T04:29:46.139Z,0.00
2023-02-24T04:30:36.984Z,0.00
2023-02-24T04:31:27.897Z,0.00
2023-02-24T04:32:18.881Z,0.00
2023-02-24T04:33:09.636Z,0.00
2023-02-24T04:34:00.392Z,0.00
2023-02-24T04:34:51.179Z,0.00
2023-02-24T04:35:41.954Z,0.00
2023-02-24T04:36:32.729Z,0.00
2023-02-24T04:37:23.505Z,0.00
2023-02-24T04:38:14.265Z,0.00
2023-02-24T04:39:05.040Z,0.00
2023-02-24T04:39:55.804Z,0.00
2023-02-24T04:40:46.575Z,0.00
2023-02-24T04:41:37.383Z,0.00
2023-02-24T04:42:28.114Z,0.00
2023-02-24T04:43:18.883Z,0.00
2023-02-24T04:44:09.646Z,0.00
2023-02-24T04:45:00.417Z,0.00
2023-02-24T04:45:51.181Z,0.00
2023-02-24T04:46:42.044Z,0.00
2023-02-24T04:47:32.769Z,0.00
2023-02-24T04:48:23.539Z,0.00
2023-02-24T04:49:14.308Z,0.00
2023-02-24T04:50:05.087Z,0.00
2023-02-24T04:50:55.856Z,0.00
2023-02-24T04:51:46.616Z,0.00
2023-02-24T04:52:37.376Z,0.00
2023-02-24T04:53:28.161Z,0.00
2023-02-24T04:54:18.915Z,0.00
2023-02-24T04:55:09.677Z,0.00
2023-02-24T04:56:00.455Z,0.00
2023-02-24T04:56:51.219Z,0.00
2023-02-24T04:57:41.974Z,0.00
2023-02-24T04:58:32.983Z,0.00
2023-02-24T04:59:23.745Z,0.00
2023-02-24T05:00:14.515Z,0.00
2023-02-24T05:01:05.276Z,0.00
2023-02-24T05:01:56.074Z,0.00
2023-02-24T05:02:46.831Z,0.00
2023-02-24T05:03:37.652Z,0.00
2023-02-24T05:04:28.375Z,0.00
2023-02-24T05:05:19.116Z,0.00
2023-02-24T05:06:09.901Z,0.00
2023-02-24T05:07:00.659Z,0.00
2023-02-24T05:07:51.416Z,0.00
2023-02-24T05:08:42.182Z,0.00
2023-02-24T05:09:32.954Z,0.00
2023-02-24T05:10:23.737Z,0.00
2023-02-24T05:11:14.499Z,0.00
2023-02-24T05:12:05.269Z,0.00
2023-02-24T05:12:56.038Z,0.00
2023-02-24T05:13:46.828Z,0.00
2023-02-24T05:14:37.575Z,0.00
2023-02-24T05:15:28.352Z,0.00
2023-02-24T05:16:19.147Z,0.00
2023-02-24T05:17:09.912Z,0.00
2023-02-24T05:18:00.658Z,0.00
2023-02-24T05:18:51.414Z,0.00
2023-02-24T05:19:42.181Z,0.00
2023-02-24T05:20:32.958Z,0.00
2023-02-24T05:21:23.786Z,0.00
2023-02-24T05:22:14.613Z,0.00
2023-02-24T05:23:05.333Z,0.00
2023-02-24T05:23:56.093Z,0.00
2023-02-24T05:24:46.841Z,0.00
2023-02-24T05:25:37.630Z,0.00
2023-02-24T05:26:28.377Z,0.00
2023-02-24T05:27:19.152Z,0.00
2023-02-24T05:28:09.914Z,0.00
2023-02-24T05:29:00.679Z,0.00
2023-02-24T05:29:51.446Z,0.00
2023-02-24T05:30:42.300Z,0.00
2023-02-24T05:31:33.122Z,0.00
2023-02-24T05:32:24.058Z,0.00
2023-02-24T05:33:14.803Z,0.00
2023-02-24T05:34:05.580Z,0.00
2023-02-24T05:34:56.332Z,0.00
2023-02-24T05:35:47.106Z,0.00
2023-02-24T05:36:37.865Z,0.00
2023-02-24T05:37:28.645Z,0.00
2023-02-24T05:38:19.404Z,0.00
2023-02-24T05:39:10.185Z,0.00
2023-02-24T05:40:00.951Z,0.00
2023-02-24T05:40:51.721Z,0.00
2023-02-24T05:41:42.544Z,0.00
2023-02-24T05:42:33.242Z,0.00
2023-02-24T05:43:24.004Z,0.00
2023-02-24T05:44:14.779Z,0.00
2023-02-24T05:45:05.547Z,0.00
2023-02-24T05:45:56.310Z,0.00
2023-02-24T05:46:47.400Z,0.00
2023-02-24T05:47:38.132Z,0.00
2023-02-24T05:48:28.870Z,0.00
2023-02-24T05:49:19.642Z,0.00
2023-02-24T05:50:10.408Z,0.00
2023-02-24T05:51:01.191Z,0.00
2023-02-24T05:51:51.944Z,0.00
2023-02-24T05:52:42.723Z,0.00
2023-02-24T05:53:33.503Z,0.00
2023-02-24T05:54:24.317Z,0.00
2023-02-24T05:55:15.099Z,0.00
2023-02-24T05:56:05.945Z,0.00
2023-02-24T05:56:56.601Z,0.00
2023-02-24T05:57:47.376Z,0.00
2023-02-24T05:58:38.144Z,0.00
2023-02-24T05:59:29.016Z,1.00
2023-02-24T06:00:19.894Z,1.00
2023-02-24T06:01:10.760Z,1.00
2023-02-24T06:02:01.699Z,1.00
2023-02-24T06:02:52.588Z,1.00
2023-02-24T06:03:43.268Z,0.00
2023-02-24T06:04:34.089Z,0.00
2023-02-24T06:05:25.203Z,2.00
2023-02-24T06:06:16.371Z,1.00
2023-02-24T06:07:07.208Z,1.00
2023-02-24T06:07:58.088Z,1.00
2023-02-24T06:08:48.955Z,1.00
2023-02-24T06:09:39.840Z,3.00
2023-02-24T06:10:30.716Z,3.00
2023-02-24T06:11:22.407Z,2.00
2023-02-24T06:12:12.889Z,2.00
2023-02-24T06:13:03.722Z,6.00
2023-02-24T06:13:54.599Z,6.00
2023-02-24T06:14:45.488Z,6.00
2023-02-24T06:15:36.343Z,3.00
2023-02-24T06:16:27.265Z,3.00
2023-02-24T06:17:18.091Z,3.00
2023-02-24T06:18:08.994Z,5.00
2023-02-24T06:18:59.852Z,5.00
2023-02-24T06:19:50.723Z,5.00
2023-02-24T06:20:41.593Z,5.00
2023-02-24T06:21:32.470Z,5.00
2023-02-24T06:22:23.337Z,4.00
2023-02-24T06:23:14.220Z,7.00
2023-02-24T06:24:05.095Z,7.00
2023-02-24T06:24:55.976Z,6.00
2023-02-24T06:25:46.853Z,9.00
2023-02-24T06:26:37.765Z,9.00
2023-02-24T06:27:28.606Z,8.00
2023-02-24T06:28:19.499Z,10.00
2023-02-24T06:29:10.377Z,13.00
2023-02-24T06:30:01.285Z,12.00
2023-02-24T06:30:52.267Z,11.00
2023-02-24T06:31:43.285Z,9.00
2023-02-24T06:32:34.202Z,11.00
2023-02-24T06:33:25.079Z,13.00
2023-02-24T06:34:15.941Z,18.00
2023-02-24T06:35:06.853Z,14.00
2023-02-24T06:35:57.733Z,14.00
2023-02-24T06:36:48.629Z,14.00
2023-02-24T06:37:39.546Z,15.00
2023-02-24T06:38:30.420Z,18.00
2023-02-24T06:39:21.305Z,16.00
2023-02-24T06:40:12.203Z,14.00
2023-02-24T06:41:03.105Z,14.00
2023-02-24T06:41:53.992Z,15.00
2023-02-24T06:42:44.879Z,21.00
2023-02-24T06:43:35.790Z,19.00
2023-02-24T06:44:26.665Z,23.00
2023-02-24T06:45:17.567Z,29.00
2023-02-24T06:46:08.546Z,31.00
2023-02-24T06:46:59.444Z,33.00
2023-02-24T06:47:50.308Z,36.00
2023-02-24T06:48:41.215Z,26.00
2023-02-24T06:49:32.087Z,26.00
2023-02-24T06:50:22.983Z,30.00
2023-02-24T06:51:13.865Z,24.00
2023-02-24T06:52:04.756Z,24.00
2023-02-24T06:52:55.627Z,29.00
2023-02-24T06:53:46.509Z,30.00
2023-02-24T06:54:37.519Z,27.00
2023-02-24T06:55:28.443Z,25.00
2023-02-24T06:56:19.308Z,30.00
2023-02-24T06:57:10.192Z,27.00
2023-02-24T06:58:01.075Z,28.00
2023-02-24T06:58:51.985Z,25.00
2023-02-24T06:59:42.876Z,30.00
2023-02-24T07:00:33.749Z,32.00
2023-02-24T07:01:24.966Z,35.00
2023-02-24T07:02:15.264Z,30.00
2023-02-24T07:03:06.147Z,28.00
2023-02-24T07:03:57.128Z,28.00
2023-02-24T07:04:47.958Z,32.00
2023-02-24T07:05:38.855Z,36.00
2023-02-24T07:06:29.723Z,47.00
2023-02-24T07:07:20.604Z,47.00
2023-02-24T07:08:11.486Z,51.00
2023-02-24T07:09:02.383Z,50.00
2023-02-24T07:09:53.269Z,52.00
2023-02-24T07:10:44.156Z,54.00
2023-02-24T07:11:35.048Z,48.00
2023-02-24T07:12:25.951Z,47.00
2023-02-24T07:13:16.838Z,48.00
2023-02-24T07:14:07.746Z,47.00
2023-02-24T07:14:58.621Z,42.00
2023-02-24T07:15:49.515Z,47.00
2023-02-24T07:16:40.471Z,48.00
2023-02-24T07:17:31.313Z,58.00
2023-02-24T07:18:22.213Z,64.00
2023-02-24T07:19:13.117Z,64.00
2023-02-24T07:20:03.982Z,66.00
2023-02-24T07:20:54.932Z,67.00
2023-02-24T07:21:45.770Z,61.00
2023-02-24T07:22:36.656Z,53.00
2023-02-24T07:23:27.518Z,54.00
2023-02-24T07:24:18.418Z,41.00
2023-02-24T07:25:09.305Z,44.00
2023-02-24T07:26:00.217Z,44.00
2023-02-24T07:26:51.095Z,48.00
2023-02-24T07:27:41.983Z,62.00
2023-02-24T07:28:32.876Z,70.00
2023-02-24T07:29:23.761Z,63.00
2023-02-24T07:30:14.640Z,65.00
2023-02-24T07:31:05.724Z,58.00
2023-02-24T07:31:56.937Z,66.00
2023-02-24T07:32:47.290Z,69.00
2023-02-24T07:33:38.173Z,73.00
2023-02-24T07:34:29.115Z,60.00
2023-02-24T07:35:19.959Z,52.00
2023-02-24T07:36:10.861Z,63.00
2023-02-24T07:37:01.745Z,64.00
2023-02-24T07:37:52.642Z,72.00
2023-02-24T07:38:43.531Z,77.00
2023-02-24T07:39:34.428Z,77.00
2023-02-24T07:40:25.336Z,94.00
2023-02-24T07:41:16.224Z,80.00
2023-02-24T07:42:07.111Z,77.00
2023-02-24T07:42:58.008Z,74.00
2023-02-24T07:43:48.895Z,64.00
2023-02-24T07:44:39.793Z,64.00
2023-02-24T07:45:30.719Z,70.00
2023-02-24T07:46:21.659Z,76.00
2023-02-24T07:47:12.486Z,86.00
2023-02-24T07:48:03.362Z,74.00
2023-02-24T07:48:54.250Z,88.00
2023-02-24T07:49:45.221Z,81.00
2023-02-24T07:50:36.095Z,92.00
2023-02-24T07:51:26.984Z,88.00
2023-02-24T07:52:17.878Z,100.00
2023-02-24T07:53:08.770Z,105.00
2023-02-24T07:53:59.664Z,101.00
2023-02-24T07:54:50.572Z,107.00
2023-02-24T07:55:41.470Z,115.00
2023-02-24T07:56:32.382Z,104.00
2023-02-24T07:57:23.257Z,97.00
2023-02-24T07:58:14.170Z,109.00
2023-02-24T07:59:05.068Z,123.00
2023-02-24T07:59:55.971Z,120.00
2023-02-24T08:00:46.888Z,122.00
2023-02-24T08:01:37.815Z,132.00
2023-02-24T08:02:28.735Z,149.00
2023-02-24T08:03:19.617Z,139.00
2023-02-24T08:04:10.508Z,152.00
2023-02-24T08:05:01.463Z,171.00
2023-02-24T08:05:52.487Z,188.00
2023-02-24T08:06:44.913Z,206.00
2023-02-24T08:07:34.062Z,222.00
2023-02-24T08:08:24.997Z,202.00
2023-02-24T08:09:15.896Z,231.00
2023-02-24T08:10:06.834Z,229.00
2023-02-24T08:10:57.751Z,194.00
2023-02-24T08:11:48.677Z,247.00
2023-02-24T08:12:39.584Z,234.00
2023-02-24T08:13:30.521Z,275.00
2023-02-24T08:14:21.429Z,242.00
2023-02-24T08:15:12.356Z,269.00
2023-02-24T08:16:03.332Z,210.00
2023-02-24T08:16:54.201Z,236.00
2023-02-24T08:17:45.109Z,197.00
2023-02-24T08:18:36.041Z,196.00
2023-02-24T08:19:26.954Z,191.00
2023-02-24T08:20:17.919Z,169.00
2023-02-24T08:21:08.804Z,161.00
2023-02-24T08:21:59.718Z,174.00
2023-02-24T08:22:50.624Z,183.00
2023-02-24T08:23:41.543Z,183.00
2023-02-24T08:24:32.457Z,177.00
2023-02-24T08:25:23.385Z,199.00
2023-02-24T08:26:14.322Z,213.00
2023-02-24T08:27:05.315Z,229.00
2023-02-24T08:28:06.995Z,198.00
2023-02-24T08:28:48.179Z,177.00
2023-02-24T08:29:37.881Z,218.00
2023-02-24T08:30:28.882Z,195.00
2023-02-24T08:31:20.324Z,198.00
2023-02-24T08:32:11.029Z,208.00
2023-02-24T08:33:01.949Z,188.00
2023-02-24T08:33:52.858Z,196.00
2023-02-24T08:34:43.776Z,201.00
2023-02-24T08:35:34.710Z,208.00
2023-02-24T08:36:25.610Z,233.00
2023-02-24T08:37:16.506Z,243.00
2023-02-24T08:38:07.436Z,230.00
2023-02-24T08:38:58.346Z,267.00
2023-02-24T08:39:49.290Z,274.00
2023-02-24T08:40:40.216Z,269.00
2023-02-24T08:41:31.126Z,284.00
2023-02-24T08:42:22.035Z,248.00
2023-02-24T08:43:12.964Z,267.00
2023-02-24T08:44:03.877Z,292.00
2023-02-24T08:44:54.803Z,287.00
2023-02-24T08:45:45.719Z,242.00
2023-02-24T08:46:36.730Z,215.00
2023-02-24T08:47:27.631Z,231.00
2023-02-24T08:48:18.550Z,222.00
2023-02-24T08:49:09.466Z,197.00
2023-02-24T08:50:00.377Z,149.00
2023-02-24T08:50:51.302Z,136.00
2023-02-24T08:51:42.185Z,166.00
2023-02-24T08:52:33.088Z,170.00
2023-02-24T08:53:23.994Z,169.00
2023-02-24T08:54:14.916Z,190.00
2023-02-24T08:55:05.826Z,199.00
2023-02-24T08:55:56.749Z,234.00
2023-02-24T08:56:47.674Z,262.00
2023-02-24T08:57:38.572Z,263.00
2023-02-24T08:58:29.481Z,296.00
2023-02-24T08:59:20.389Z,293.00
2023-02-24T09:00:11.308Z,300.00
2023-02-24T09:01:02.294Z,296.00
2023-02-24T09:02:03.589Z,327.00
2023-02-24T09:02:45.061Z,335.00
2023-02-24T09:03:34.762Z,331.00
2023-02-24T09:04:25.723Z,388.00
2023-02-24T09:05:16.596Z,438.00
2023-02-24T09:06:07.554Z,441.00
2023-02-24T09:07:10.794Z,356.00
2023-02-24T09:07:50.344Z,358.00
2023-02-24T09:08:40.047Z,369.00
2023-02-24T09:09:30.960Z,339.00
2023-02-24T09:10:21.882Z,355.00
2023-02-24T09:11:12.801Z,327.00
2023-02-24T09:12:03.716Z,316.00
2023-02-24T09:12:54.638Z,345.00
2023-02-24T09:13:45.548Z,397.00
2023-02-24T09:14:36.730Z,449.00
2023-02-24T09:15:27.653Z,443.00
2023-02-24T09:16:18.661Z,495.00
2023-02-24T09:17:09.514Z,500.00
2023-02-24T09:18:00.418Z,520.00
2023-02-24T09:18:51.344Z,456.00
2023-02-24T09:19:42.257Z,441.00
2023-02-24T09:20:33.176Z,324.00
2023-02-24T09:21:24.227Z,383.00
2023-02-24T09:22:21.091Z,341.00
2023-02-24T09:23:07.024Z,302.00
2023-02-24T09:23:56.717Z,248.00
2023-02-24T09:24:47.631Z,261.00
2023-02-24T09:25:38.558Z,230.00
2023-02-24T09:26:29.474Z,214.00
2023-02-24T09:27:20.389Z,191.00
2023-02-24T09:28:11.305Z,214.00
2023-02-24T09:29:02.228Z,226.00
2023-02-24T09:29:53.155Z,218.00
2023-02-24T09:30:44.082Z,180.00
2023-02-24T09:31:37.473Z,173.00
2023-02-24T09:32:25.757Z,174.00
2023-02-24T09:33:16.649Z,147.00
2023-02-24T09:34:07.587Z,161.00
2023-02-24T09:34:58.457Z,163.00
2023-02-24T09:35:49.383Z,212.00
2023-02-24T09:36:42.596Z,297.00
2023-02-24T09:37:31.074Z,291.00
2023-02-24T09:38:21.985Z,313.00
2023-02-24T09:39:12.901Z,431.00
2023-02-24T09:40:03.813Z,464.00
2023-02-24T09:40:54.742Z,415.00
2023-02-24T09:41:45.643Z,371.00
2023-02-24T09:42:37.311Z,331.00
2023-02-24T09:43:27.574Z,388.00
2023-02-24T09:44:18.749Z,388.00
2023-02-24T09:45:09.629Z,427.00
2023-02-24T09:46:00.693Z,480.00
2023-02-24T09:46:51.696Z,326.00
2023-02-24T09:47:42.572Z,386.00
2023-02-24T09:48:33.495Z,443.00
2023-02-24T09:49:24.410Z,487.00
2023-02-24T09:50:15.328Z,414.00
2023-02-24T09:51:06.488Z,350.00
2023-02-24T09:51:57.434Z,329.00
2023-02-24T09:52:48.324Z,329.00
2023-02-24T09:53:41.521Z,369.00
2023-02-24T09:54:30.173Z,336.00
2023-02-24T09:55:21.079Z,329.00
2023-02-24T09:56:12.005Z,309.00
2023-02-24T09:57:02.905Z,247.00
2023-02-24T09:57:53.835Z,251.00
2023-02-24T09:58:44.740Z,282.00
2023-02-24T09:59:35.666Z,290.00
2023-02-24T10:00:26.575Z,270.00
2023-02-24T10:01:17.613Z,365.00
2023-02-24T10:02:08.515Z,469.00
2023-02-24T10:02:59.410Z,355.00
2023-02-24T10:03:50.320Z,415.00
2023-02-24T10:04:41.247Z,497.00
2023-02-24T10:05:32.178Z,457.00
2023-02-24T10:06:23.087Z,525.00
2023-02-24T10:07:14.031Z,558.00
2023-02-24T10:08:04.918Z,504.00
2023-02-24T10:08:55.831Z,373.00
2023-02-24T10:09:46.753Z,369.00
2023-02-24T10:10:37.653Z,342.00
2023-02-24T10:11:28.579Z,361.00
2023-02-24T10:12:19.498Z,312.00
2023-02-24T10:13:10.425Z,314.00
2023-02-24T10:14:04.406Z,308.00
2023-02-24T10:14:52.213Z,320.00
2023-02-24T10:15:43.109Z,361.00
2023-02-24T10:16:34.106Z,434.00
2023-02-24T10:17:25.094Z,517.00
2023-02-24T10:18:15.964Z,469.00
2023-02-24T10:19:06.885Z,465.00
2023-02-24T10:19:57.793Z,455.00
2023-02-24T10:20:48.833Z,459.00
2023-02-24T10:21:39.680Z,442.00
2023-02-24T10:22:30.643Z,483.00
2023-02-24T10:23:21.515Z,583.00
2023-02-24T10:24:12.430Z,526.00
2023-02-24T10:25:03.355Z,685.00
2023-02-24T10:25:54.456Z,552.00
2023-02-24T10:26:59.575Z,510.00
2023-02-24T10:27:37.263Z,521.00
2023-02-24T10:28:26.969Z,417.00
2023-02-24T10:29:18.860Z,381.00
2023-02-24T10:30:08.674Z,397.00
2023-02-24T10:30:59.703Z,419.00
2023-02-24T10:31:50.752Z,457.00
2023-02-24T10:32:41.768Z,494.00
2023-02-24T10:33:32.627Z,473.00
2023-02-24T10:34:24.149Z,456.00
2023-02-24T10:35:14.390Z,443.00
2023-02-24T10:36:05.314Z,414.00
2023-02-24T10:36:56.228Z,409.00
2023-02-24T10:37:47.171Z,417.00
2023-02-24T10:38:38.065Z,419.00
2023-02-24T10:39:28.973Z,439.00
2023-02-24T10:40:19.937Z,414.00
2023-02-24T10:41:10.805Z,396.00
2023-02-24T10:42:01.808Z,412.00
2023-02-24T10:42:52.670Z,427.00
2023-02-24T10:43:43.633Z,440.00
2023-02-24T10:44:34.534Z,403.00
2023-02-24T10:45:25.444Z,441.00
2023-02-24T10:46:16.419Z,395.00
2023-02-24T10:47:07.286Z,367.00
2023-02-24T10:47:58.194Z,468.00
2023-02-24T10:48:49.116Z,470.00
2023-02-24T10:49:40.032Z,409.00
2023-02-24T10:50:32.466Z,409.00
2023-02-24T10:51:22.321Z,412.00
2023-02-24T10:52:12.807Z,359.00
2023-02-24T10:53:03.736Z,326.00
2023-02-24T10:53:54.683Z,377.00
2023-02-24T10:54:45.574Z,473.00
2023-02-24T10:55:36.466Z,493.00
2023-02-24T10:56:27.402Z,334.00
2023-02-24T10:57:18.320Z,310.00
2023-02-24T10:58:09.212Z,387.00
2023-02-24T10:59:01.774Z,371.00
2023-02-24T10:59:50.895Z,360.00
2023-02-24T11:00:41.800Z,334.00
2023-02-24T11:01:32.728Z,374.00